Time;durP1;ratioP1;P1;durP2;ratioP2;P2;SDS_P1;SDS_P2;PMS_P1;PMS_P2;Temp;Humidity;BMP_temperature;BMP_pressure;BME280_temperature;BME280_humidity;BME280_pressure;Samples;Min_cycle;Max_cycle;Signal;HPM_P1;HPM_P2
2022/11/26 00:01:14;;;;;;;114.95;63.55;;;;;;;2.49;100.00;98600.00;1738086;82;21024;-76
2022/11/26 00:03:41;;;;;;;114.77;62.40;;;;;;;2.45;100.00;98597.94;1738057;81;21016;-77
2022/11/26 00:06:30;;;;;;;103.12;57.80;;;;;;;2.42;100.00;98608.56;1738058;82;21020;-77
2022/11/26 00:08:58;;;;;;;102.45;59.85;;;;;;;2.41;100.00;98606.11;1718347;82;20996;-81
2022/11/26 00:11:25;;;;;;;101.07;56.33;;;;;;;2.41;100.00;98612.80;1737885;82;21484;-81
2022/11/26 00:13:52;;;;;;;110.15;61.95;;;;;;;2.40;100.00;98613.31;1738024;81;21043;-81
2022/11/26 00:16:19;;;;;;;107.92;62.27;;;;;;;2.41;100.00;98613.61;1738013;82;21015;-76
2022/11/26 00:18:45;;;;;;;107.70;59.15;;;;;;;2.40;100.00;98615.98;1738129;81;21016;-77
2022/11/26 00:21:23;;;;;;;107.70;59.23;;;;;;;2.39;100.00;98618.84;1738122;82;21000;-81
2022/11/26 00:23:51;;;;;;;103.85;59.93;;;;;;;2.35;100.00;98617.12;1738075;81;21789;-76
2022/11/26 00:26:20;;;;;;;106.37;59.65;;;;;;;2.30;100.00;98616.11;1737910;82;21524;-81
2022/11/26 00:28:56;;;;;;;107.32;57.40;;;;;;;2.26;100.00;98618.40;1738363;81;21028;-76
2022/11/26 00:31:23;;;;;;;102.27;53.08;;;;;;;2.21;100.00;98613.67;1738047;82;21036;-77
2022/11/26 00:33:50;;;;;;;107.60;59.35;;;;;;;2.20;100.00;98615.23;1732532;81;21064;-77
2022/11/26 00:36:30;;;;;;;115.32;66.90;;;;;;;2.18;100.00;98614.11;1713187;83;21556;-76
2022/11/26 00:39:05;;;;;;;112.62;61.35;;;;;;;2.22;100.00;98610.48;1712989;82;21004;-77
2022/11/26 00:41:37;;;;;;;116.62;62.23;;;;;;;2.23;100.00;98608.95;1709773;82;21073;-76
2022/11/26 00:44:18;;;;;;;102.58;57.15;;;;;;;2.22;100.00;98619.36;1698344;83;21514;-81
2022/11/26 00:46:45;;;;;;;102.72;57.05;;;;;;;2.17;100.00;98621.83;1698444;84;21454;-77
2022/11/26 00:49:12;;;;;;;99.42;52.13;;;;;;;2.11;100.00;98625.85;1698207;83;20995;-76
2022/11/26 00:51:39;;;;;;;90.32;49.95;;;;;;;2.05;100.00;98633.37;1698154;83;21244;-80
2022/11/26 00:54:08;;;;;;;91.97;48.13;;;;;;;1.95;100.00;98634.63;1678303;84;20977;-81
2022/11/26 00:56:34;;;;;;;91.42;48.28;;;;;;;1.90;100.00;98639.80;1698378;84;21005;-77
2022/11/26 00:59:02;;;;;;;84.50;45.75;;;;;;;1.91;100.00;98640.09;1698299;84;20997;-76
2022/11/26 01:01:28;;;;;;;76.37;43.25;;;;;;;1.90;100.00;98642.47;1698072;84;21734;-82
2022/11/26 01:03:57;;;;;;;80.35;46.30;;;;;;;1.92;100.00;98636.91;1698142;83;21013;-81
2022/11/26 01:06:29;;;;;;;84.87;44.80;;;;;;;1.95;100.00;98639.16;1698304;84;21517;-76
2022/11/26 01:08:56;;;;;;;93.80;52.20;;;;;;;1.93;100.00;98643.89;1698258;84;21466;-81
2022/11/26 01:11:23;;;;;;;99.32;52.98;;;;;;;1.92;100.00;98646.27;1698153;83;21020;-80
2022/11/26 01:13:51;;;;;;;103.25;54.83;;;;;;;1.89;100.00;98644.84;1698240;84;21027;-76
2022/11/26 01:16:25;;;;;;;107.75;55.23;;;;;;;1.87;100.00;98651.41;1698254;84;21006;-76
2022/11/26 01:18:54;;;;;;;95.55;50.65;;;;;;;1.83;100.00;98652.34;1698360;84;21068;-76
2022/11/26 01:21:22;;;;;;;;;;;;;;;1.81;100.00;98652.25;1700735;84;21029;-77
2022/11/26 01:23:49;;;;;;;89.97;43.68;;;;;;;1.82;100.00;98640.53;1698235;83;20176;-81
2022/11/26 01:26:19;;;;;;;81.42;43.17;;;;;;;1.78;100.00;98640.11;1711098;83;21021;-81
2022/11/26 01:28:46;;;;;;;85.47;45.43;;;;;;;1.79;100.00;98640.41;1711676;82;21014;-81
2022/11/26 01:31:22;;;;;;;98.87;50.55;;;;;;;1.80;100.00;98642.59;1711610;83;21441;-76
2022/11/26 01:33:49;;;;;;;100.20;52.05;;;;;;;1.80;100.00;98639.41;1711615;82;21006;-76
2022/11/26 01:36:32;;;;;;;93.33;49.83;;;;;;;1.81;100.00;98646.91;1713428;83;21014;-77
2022/11/26 01:39:08;;;;;;;92.15;44.83;;;;;;;1.77;100.00;98650.49;1707042;82;21687;-81
2022/11/26 01:42:06;;;;;;;81.22;40.73;;;;;;;1.78;100.00;98649.46;1713052;83;21542;-81
2022/11/26 01:44:34;;;;;;;89.45;42.90;;;;;;;1.77;100.00;98650.49;1713445;82;21099;-77
2022/11/26 01:47:11;;;;;;;95.28;42.83;;;;;;;1.77;100.00;98653.17;1713578;83;20975;-79
2022/11/26 01:49:38;;;;;;;89.05;44.93;;;;;;;1.75;100.00;98649.89;1699875;82;21011;-76
2022/11/26 01:52:23;;;;;;;87.50;45.83;;;;;;;1.74;100.00;98652.77;1713461;83;21001;-81
2022/11/26 01:54:50;;;;;;;91.25;47.43;;;;;;;1.73;100.00;98657.30;1713208;83;21082;-76
2022/11/26 01:57:24;;;;;;;91.82;45.33;;;;;;;1.72;100.00;98653.50;1713275;83;21054;-77
2022/11/26 01:59:58;;;;;;;90.90;45.08;;;;;;;1.74;100.00;98651.44;1713500;82;21045;-81
2022/11/26 02:02:26;;;;;;;85.97;46.23;;;;;;;1.76;100.00;98662.22;1713221;83;21526;-76
2022/11/26 02:05:09;;;;;;;82.42;44.03;;;;;;;1.74;100.00;98660.79;1713572;83;21699;-81
2022/11/26 02:07:36;;;;;;;75.12;38.63;;;;;;;1.73;100.00;98653.29;1713244;82;21054;-76
2022/11/26 02:10:05;;;;;;;85.38;44.18;;;;;;;1.72;100.00;98656.99;1713228;82;21502;-81
2022/11/26 02:12:31;;;;;;;81.93;39.50;;;;;;;1.66;100.00;98650.61;1703138;83;21043;-76
2022/11/26 02:14:58;;;;;;;82.55;40.70;;;;;;;1.69;100.00;98660.06;1713248;83;21023;-81
2022/11/26 02:17:39;;;;;;;83.70;38.63;;;;;;;1.64;100.00;98659.36;1713294;82;21492;-76
2022/11/26 02:20:44;;;;;;;75.37;37.50;;;;;;;1.63;100.00;98667.07;1713245;82;21539;-83
2022/11/26 02:24:01;;;;;;;76.12;38.60;;;;;;;1.66;100.00;98670.66;1712995;82;21031;-81
2022/11/26 02:27:07;;;;;;;68.30;35.95;;;;;;;1.68;100.00;98663.25;1688236;85;21039;-81
2022/11/26 02:30:06;;;;;;;76.72;38.85;;;;;;;1.68;100.00;98663.77;1688463;85;21031;-76
2022/11/26 02:32:53;;;;;;;82.30;39.50;;;;;;;1.60;100.00;98664.80;1710941;83;21499;-77
2022/11/26 02:35:39;;;;;;;82.05;43.08;;;;;;;1.60;100.00;98667.47;1717495;82;21428;-81
2022/11/26 02:38:12;;;;;;;80.90;42.73;;;;;;;1.61;100.00;98670.95;1716993;83;20999;-76
2022/11/26 02:40:39;;;;;;;82.35;40.83;;;;;;;1.61;100.00;98668.28;1691393;83;21015;-81
2022/11/26 02:43:06;;;;;;;77.10;38.80;;;;;;;1.63;100.00;98666.25;1714259;83;21243;-81
2022/11/26 02:45:36;;;;;;;83.20;40.58;;;;;;;1.60;100.00;98666.13;1713206;83;21019;-76
2022/11/26 02:48:13;;;;;;;80.00;38.78;;;;;;;1.60;100.00;98669.31;1713255;83;22088;-76
2022/11/26 02:50:56;;;;;;;68.33;36.90;;;;;;;1.61;100.00;98670.44;1713358;82;20991;-77
2022/11/26 02:53:25;;;;;;;69.97;38.13;;;;;;;1.61;100.00;98670.44;1712844;83;21526;-81
2022/11/26 02:56:00;;;;;;;78.30;38.75;;;;;;;1.56;100.00;98668.92;1713591;83;21078;-81
2022/11/26 02:58:27;;;;;;;73.45;39.42;;;;;;;1.55;100.00;98668.62;1713323;83;21066;-81
2022/11/26 03:00:54;;;;;;;72.75;36.53;;;;;;;1.53;100.00;98672.50;1713269;82;21439;-77
2022/11/26 03:03:25;;;;;;;68.30;34.27;;;;;;;1.54;100.00;98666.98;1713198;83;21048;-76
2022/11/26 03:05:54;;;;;;;61.42;34.95;;;;;;;1.55;100.00;98664.61;1713253;82;20967;-76
2022/11/26 03:08:21;;;;;;;73.02;37.23;;;;;;;1.57;100.00;98669.73;1713151;83;21452;-76
2022/11/26 03:10:48;;;;;;;61.83;32.93;;;;;;;1.57;100.00;98665.73;1713239;82;21011;-76
2022/11/26 03:13:15;;;;;;;71.20;34.80;;;;;;;1.61;100.00;98667.77;1713120;82;20948;-76
2022/11/26 03:15:42;;;;;;;68.78;34.35;;;;;;;1.65;100.00;98669.53;1713025;83;20990;-76
2022/11/26 03:18:09;;;;;;;67.22;38.17;;;;;;;1.64;100.00;98667.89;1702995;83;21423;-81
2022/11/26 03:20:36;;;;;;;72.82;37.67;;;;;;;1.63;100.00;98667.59;1713245;83;21284;-81
2022/11/26 03:23:03;;;;;;;92.57;43.70;;;;;;;1.61;100.00;98669.11;1713289;83;21003;-76
2022/11/26 03:25:30;;;;;;;73.83;37.23;;;;;;;1.57;100.00;98668.41;1713209;82;21046;-77
2022/11/26 03:27:57;;;;;;;70.17;37.35;;;;;;;1.54;100.00;98665.64;1713399;83;20974;-81
2022/11/26 03:30:23;;;;;;;69.47;36.55;;;;;;;1.54;100.00;98670.13;1713333;83;21011;-77
2022/11/26 03:32:50;;;;;;;69.87;36.70;;;;;;;1.51;100.00;98672.70;1713398;83;21482;-76
2022/11/26 03:35:17;;;;;;;67.75;34.38;;;;;;;1.51;100.00;98668.70;1712129;83;21525;-80
2022/11/26 03:37:44;;;;;;;55.50;32.17;;;;;;;1.50;100.00;98672.92;1711782;82;20983;-81
2022/11/26 03:40:11;;;;;;;58.42;30.12;;;;;;;1.44;100.00;98673.73;1711893;83;21070;-81
2022/11/26 03:42:38;;;;;;;57.93;31.05;;;;;;;1.42;100.00;98681.95;1712751;83;21007;-81
2022/11/26 03:45:06;;;;;;;61.50;33.33;;;;;;;1.41;100.00;98683.80;1713448;83;21455;-81
2022/11/26 03:47:33;;;;;;;57.70;31.57;;;;;;;1.41;100.00;98689.14;1713165;83;21682;-76
2022/11/26 03:50:00;;;;;;;69.35;36.88;;;;;;;1.42;100.00;98687.30;1713417;83;21511;-76
2022/11/26 03:52:26;;;;;;;72.12;39.45;;;;;;;1.39;100.00;98694.39;1713090;83;21010;-81
2022/11/26 03:54:53;;;;;;;57.55;31.40;;;;;;;1.39;100.00;98687.20;1713499;83;21065;-77
2022/11/26 03:57:21;;;;;;;63.20;32.65;;;;;;;1.44;100.00;98701.77;1713126;83;21034;-76
2022/11/26 03:59:47;;;;;;;61.05;35.25;;;;;;;1.41;100.00;98699.83;1713503;82;21057;-76
2022/11/26 04:02:14;;;;;;;62.65;32.63;;;;;;;1.43;100.00;98702.29;1713107;83;21420;-81
2022/11/26 04:04:41;;;;;;;52.62;29.98;;;;;;;1.49;100.00;98703.33;1713485;83;21046;-77
2022/11/26 04:07:08;;;;;;;65.78;32.83;;;;;;;1.48;100.00;98701.17;1713187;83;21487;-81
2022/11/26 04:09:35;;;;;;;62.78;32.53;;;;;;;1.51;100.00;98699.94;1713292;83;21054;-81
2022/11/26 04:12:02;;;;;;;61.65;32.85;;;;;;;1.51;100.00;98708.77;1713290;83;21164;-81
2022/11/26 04:14:29;;;;;;;62.93;35.75;;;;;;;1.53;100.00;98710.72;1713120;83;21061;-76
2022/11/26 04:16:56;;;;;;;72.90;36.63;;;;;;;1.49;100.00;98710.01;1713321;82;20987;-81
2022/11/26 04:19:23;;;;;;;66.92;37.30;;;;;;;1.47;100.00;98709.40;1713146;83;21494;-76
2022/11/26 04:21:50;;;;;;;62.70;34.43;;;;;;;1.50;100.00;98707.64;1713209;83;21061;-81
2022/11/26 04:24:17;;;;;;;57.25;31.82;;;;;;;1.51;100.00;98712.77;1713179;83;21075;-81
2022/11/26 04:26:43;;;;;;;66.17;34.13;;;;;;;1.52;100.00;98717.09;1713194;83;21538;-81
2022/11/26 04:29:10;;;;;;;62.27;33.23;;;;;;;1.52;100.00;98717.09;1713158;83;20998;-77
2022/11/26 04:31:37;;;;;;;57.75;30.97;;;;;;;1.52;100.00;98720.27;1713121;83;20984;-76
2022/11/26 04:34:04;;;;;;;56.08;31.97;;;;;;;1.52;100.00;98717.61;1686259;83;21525;-76
2022/11/26 04:36:31;;;;;;;53.60;26.30;;;;;;;1.51;100.00;98717.30;1713208;83;21425;-77
2022/11/26 04:38:58;;;;;;;44.20;24.50;;;;;;;1.53;100.00;98720.58;1713104;83;21013;-76
2022/11/26 04:41:25;;;;;;;42.00;25.02;;;;;;;1.52;100.00;98725.10;1713351;83;20981;-77
2022/11/26 04:43:52;;;;;;;48.42;26.05;;;;;;;1.53;100.00;98726.74;1713315;83;21007;-76
2022/11/26 04:46:19;;;;;;;49.33;25.75;;;;;;;1.53;100.00;98727.25;1713506;83;21006;-76
2022/11/26 04:48:45;;;;;;;46.33;24.43;;;;;;;1.53;100.00;98725.41;1713400;83;21868;-76
2022/11/26 04:51:12;;;;;;;56.90;31.65;;;;;;;1.50;100.00;98733.02;1713296;83;21547;-76
2022/11/26 04:53:39;;;;;;;61.10;34.63;;;;;;;1.47;100.00;98735.59;1703029;82;21050;-76
2022/11/26 04:56:06;;;;;;;66.05;40.10;;;;;;;1.46;100.00;98739.81;1713525;83;21065;-82
2022/11/26 04:58:33;;;;;;;73.85;40.33;;;;;;;1.42;100.00;98744.72;1713296;83;21459;-76
2022/11/26 05:01:00;;;;;;;62.98;35.15;;;;;;;1.39;100.00;98749.14;1713540;83;21050;-77
2022/11/26 05:03:27;;;;;;;54.60;32.38;;;;;;;1.35;100.00;98747.88;1713212;83;20987;-81
2022/11/26 05:05:54;;;;;;;61.88;34.13;;;;;;;1.30;100.00;98751.69;1713427;83;21495;-76
2022/11/26 05:08:21;;;;;;;62.93;36.58;;;;;;;1.29;100.00;98748.72;1713470;83;21003;-81
2022/11/26 05:10:53;;;;;;;60.20;32.00;;;;;;;1.31;100.00;98748.81;1713581;83;21027;-76
2022/11/26 05:13:20;;;;;;;61.25;34.30;;;;;;;1.32;100.00;98749.64;1713259;83;21003;-77
2022/11/26 05:15:47;;;;;;;54.77;31.50;;;;;;;1.32;100.00;98756.31;1713162;82;21058;-76
2022/11/26 05:18:15;;;;;;;60.48;29.50;;;;;;;1.28;100.00;98755.91;1713389;83;21470;-81
2022/11/26 05:20:41;;;;;;;51.40;28.10;;;;;;;1.27;100.00;98755.56;1713335;83;21423;-81
2022/11/26 05:23:08;;;;;;;47.98;26.00;;;;;;;1.24;100.00;98752.48;1713346;83;21061;-76
2022/11/26 05:25:35;;;;;;;49.55;28.73;;;;;;;1.22;100.00;98755.37;1713497;83;20995;-76
2022/11/26 05:28:02;;;;;;;40.70;24.05;;;;;;;1.23;100.00;98752.19;1713051;83;20991;-76
2022/11/26 05:30:29;;;;;;;44.15;25.48;;;;;;;1.25;100.00;98757.63;1713451;83;21015;-76
2022/11/26 05:32:56;;;;;;;51.33;29.95;;;;;;;1.28;100.00;98761.25;1713148;83;20995;-76
2022/11/26 05:35:23;;;;;;;59.13;30.82;;;;;;;1.31;100.00;98768.02;1717778;83;20980;-81
2022/11/26 05:37:50;;;;;;;65.10;38.80;;;;;;;1.33;100.00;98769.45;1718183;83;21464;-81
2022/11/26 05:40:17;;;;;;;70.08;41.05;;;;;;;1.34;100.00;98774.28;1718448;83;21063;-76
2022/11/26 05:42:44;;;;;;;65.30;37.48;;;;;;;1.34;100.00;98768.94;1714887;83;21024;-81
2022/11/26 05:45:10;;;;;;;61.50;33.75;;;;;;;1.37;100.00;98771.23;1713494;83;20975;-81
2022/11/26 05:47:37;;;;;;;60.70;34.45;;;;;;;1.39;100.00;98767.32;1713303;83;21042;-82
2022/11/26 05:50:06;;;;;;;64.87;33.38;;;;;;;1.43;100.00;98766.91;1713518;83;21043;-76
2022/11/26 05:52:33;;;;;;;;;;;;;;;1.41;100.00;98775.95;1715671;83;22080;-82
2022/11/26 05:55:00;;;;;;;54.55;32.58;;;;;;;1.31;100.00;98772.84;1713464;83;20174;-81
2022/11/26 05:57:27;;;;;;;57.23;33.48;;;;;;;1.32;100.00;98772.33;1709225;83;21118;-81
2022/11/26 05:59:54;;;;;;;61.80;34.83;;;;;;;1.30;100.00;98777.06;1683033;84;21030;-81
2022/11/26 06:02:20;;;;;;;66.28;37.08;;;;;;;1.28;100.00;98779.94;1682935;83;21451;-76
2022/11/26 06:04:47;;;;;;;61.88;35.40;;;;;;;1.28;100.00;98780.42;1683181;85;21026;-81
2022/11/26 06:07:14;;;;;;;62.80;35.50;;;;;;;1.29;100.00;98782.91;1682948;83;21006;-76
2022/11/26 06:09:41;;;;;;;53.87;30.68;;;;;;;1.32;100.00;98788.36;1683285;84;21013;-77
2022/11/26 06:12:08;;;;;;;63.55;33.92;;;;;;;1.32;100.00;98786.51;1683052;83;21014;-81
2022/11/26 06:14:35;;;;;;;58.23;33.83;;;;;;;1.29;100.00;98788.77;1682898;85;21024;-76
2022/11/26 06:17:02;;;;;;;52.78;28.47;;;;;;;1.31;100.00;98798.22;1683108;85;21074;-81
2022/11/26 06:19:29;;;;;;;54.65;30.57;;;;;;;1.32;100.00;98802.53;1682951;83;21077;-80
2022/11/26 06:21:56;;;;;;;54.67;32.90;;;;;;;1.32;100.00;98799.86;1683009;85;21061;-76
2022/11/26 06:24:23;;;;;;;62.00;33.08;;;;;;;1.38;100.00;98810.26;1682988;83;21552;-82
2022/11/26 06:26:49;;;;;;;59.08;34.30;;;;;;;1.41;100.00;98804.50;1683145;85;21022;-81
2022/11/26 06:29:16;;;;;;;57.10;34.70;;;;;;;1.45;100.00;98805.73;1682873;83;20998;-76
2022/11/26 06:31:43;;;;;;;63.20;34.27;;;;;;;1.47;100.00;98806.38;1683236;85;21022;-81
2022/11/26 06:34:10;;;;;;;60.88;35.52;;;;;;;1.45;100.00;98805.73;1693784;83;21049;-81
2022/11/26 06:36:37;;;;;;;64.37;37.70;;;;;;;1.47;100.00;98808.23;1713244;83;21489;-76
2022/11/26 06:39:04;;;;;;;69.50;40.25;;;;;;;1.50;100.00;98817.16;1713223;82;21057;-81
2022/11/26 06:41:31;;;;;;;69.00;41.98;;;;;;;1.47;100.00;98811.72;1713274;83;21093;-76
2022/11/26 06:43:59;;;;;;;74.62;39.55;;;;;;;1.47;100.00;98817.06;1713127;82;21011;-81
2022/11/26 06:46:25;;;;;;;72.50;36.28;;;;;;;1.45;100.00;98815.08;1713363;83;21086;-76
2022/11/26 06:48:52;;;;;;;60.88;35.03;;;;;;;1.48;100.00;98815.20;1713194;83;21007;-76
2022/11/26 06:51:20;;;;;;;57.95;33.85;;;;;;;1.53;100.00;98814.89;1713204;83;21118;-81
2022/11/26 06:53:48;;;;;;;53.05;30.77;;;;;;;1.54;100.00;98813.05;1713370;83;21030;-76
2022/11/26 06:56:15;;;;;;;54.20;30.35;;;;;;;1.54;100.00;98816.56;1713319;83;21018;-77
2022/11/26 06:58:43;;;;;;;55.40;31.50;;;;;;;1.55;100.00;98822.73;1702685;83;21425;-76
2022/11/26 07:01:18;;;;;;;54.10;31.15;;;;;;;1.56;100.00;98824.38;1713276;83;21022;-81
2022/11/26 07:03:45;;;;;;;53.42;31.87;;;;;;;1.58;100.00;98827.14;1713189;82;21027;-77
2022/11/26 07:06:25;;;;;;;64.00;33.90;;;;;;;1.59;100.00;98830.64;1713196;83;21066;-81
2022/11/26 07:08:53;;;;;;;72.10;40.33;;;;;;;1.61;100.00;98829.92;1713249;83;21073;-76
2022/11/26 07:11:20;;;;;;;69.53;39.23;;;;;;;1.61;100.00;98833.41;1713405;82;21011;-81
2022/11/26 07:13:47;;;;;;;80.92;44.20;;;;;;;1.65;100.00;98838.67;1713035;83;20986;-76
2022/11/26 07:16:14;;;;;;;75.40;40.80;;;;;;;1.61;100.00;98830.73;1713274;83;21471;-77
2022/11/26 07:18:41;;;;;;;66.67;40.63;;;;;;;1.61;100.00;98836.59;1713158;83;21047;-77
2022/11/26 07:21:11;;;;;;;63.33;33.67;;;;;;;1.68;100.00;98838.77;1713035;83;21478;-81
2022/11/26 07:23:39;;;;;;;66.92;33.50;;;;;;;1.68;100.00;98844.12;1713043;82;21086;-81
2022/11/26 07:26:06;;;;;;;66.90;32.60;;;;;;;1.73;100.00;98840.34;1713343;83;21014;-76
2022/11/26 07:28:33;;;;;;;58.85;30.25;;;;;;;1.77;100.00;98848.76;1712955;83;21682;-81
2022/11/26 07:31:05;;;;;;;58.80;32.70;;;;;;;1.82;100.00;98852.99;1713279;83;21506;-76
2022/11/26 07:33:32;;;;;;;61.13;30.00;;;;;;;1.83;100.00;98851.97;1711110;83;21450;-81
2022/11/26 07:36:00;;;;;;;56.83;31.33;;;;;;;1.87;100.00;98853.19;1708458;82;21417;-76
2022/11/26 07:38:28;;;;;;;58.83;30.33;;;;;;;1.84;100.00;98852.27;1708934;82;21541;-81
2022/11/26 07:40:57;;;;;;;74.05;36.63;;;;;;;1.84;100.00;98861.62;1703010;83;21457;-81
2022/11/26 07:43:23;;;;;;;62.20;32.60;;;;;;;1.89;100.00;98868.02;1704250;83;21042;-82
2022/11/26 07:45:50;;;;;;;69.00;35.45;;;;;;;1.89;100.00;98868.53;1680358;84;21007;-82
2022/11/26 07:48:17;;;;;;;62.35;34.03;;;;;;;1.93;100.00;98865.23;1677086;84;21434;-81
2022/11/26 07:50:44;;;;;;;70.92;37.48;;;;;;;1.93;100.00;98868.42;1677347;85;21063;-77
2022/11/26 07:53:12;;;;;;;67.55;36.33;;;;;;;1.95;100.00;98871.19;1677625;84;21056;-81
2022/11/26 07:55:39;;;;;;;68.52;39.15;;;;;;;1.98;100.00;98869.47;1713327;83;21020;-77
2022/11/26 07:58:06;;;;;;;74.25;38.67;;;;;;;2.05;100.00;98869.48;1713123;82;21001;-82
2022/11/26 08:00:33;;;;;;;65.57;35.45;;;;;;;2.09;100.00;98873.90;1713072;83;21461;-81
2022/11/26 08:03:00;;;;;;;64.72;34.40;;;;;;;2.14;100.00;98881.63;1710112;82;21013;-76
2022/11/26 08:05:27;;;;;;;63.65;33.85;;;;;;;2.21;100.00;98885.62;1702322;82;21095;-81
2022/11/26 08:07:54;;;;;;;54.67;31.33;;;;;;;2.25;100.00;98886.36;1706253;82;21076;-83
2022/11/26 08:10:21;;;;;;;62.35;30.82;;;;;;;2.32;100.00;98880.20;1705070;83;21498;-81
2022/11/26 08:12:48;;;;;;;54.23;28.00;;;;;;;2.36;100.00;98876.88;1709866;82;20998;-76
2022/11/26 08:15:15;;;;;;;46.25;26.60;;;;;;;2.41;100.00;98882.45;1700439;82;21072;-81
2022/11/26 08:17:42;;;;;;;44.67;26.02;;;;;;;2.51;100.00;98890.88;1709280;82;21648;-76
2022/11/26 08:20:10;;;;;;;51.05;27.70;;;;;;;2.60;100.00;98883.98;1706411;82;20998;-77
2022/11/26 08:22:37;;;;;;;44.95;26.95;;;;;;;2.65;100.00;98893.05;1690186;82;21076;-77
2022/11/26 08:25:05;;;;;;;52.67;27.85;;;;;;;2.71;100.00;98889.52;1705224;82;20989;-77
2022/11/26 08:27:32;;;;;;;49.25;25.97;;;;;;;2.78;100.00;98890.86;1704120;82;20978;-77
2022/11/26 08:29:59;;;;;;;43.65;23.98;;;;;;;2.86;100.00;98895.17;1701142;82;21645;-77
2022/11/26 08:32:26;;;;;;;44.90;25.20;;;;;;;2.92;100.00;98891.66;1705872;82;20989;-81
2022/11/26 08:34:53;;;;;;;45.95;26.15;;;;;;;2.98;100.00;98894.30;1705646;82;21005;-81
2022/11/26 08:37:19;;;;;;;56.30;30.30;;;;;;;3.00;100.00;98894.94;1712883;83;20990;-81
2022/11/26 08:39:46;;;;;;;54.77;31.20;;;;;;;3.06;100.00;98899.95;1698608;82;21473;-77
2022/11/26 08:42:13;;;;;;;54.30;34.10;;;;;;;3.16;100.00;98898.99;1703061;82;21061;-82
2022/11/26 08:44:41;;;;;;;53.75;30.97;;;;;;;3.23;100.00;98902.48;1690480;83;21090;-77
2022/11/26 08:47:08;;;;;;;51.15;31.23;;;;;;;3.32;100.00;98901.21;1706361;82;21064;-82
2022/11/26 08:49:35;;;;;;;47.58;29.60;;;;;;;3.44;100.00;98900.58;1705165;82;21460;-81
2022/11/26 08:52:02;;;;;;;52.73;32.48;;;;;;;3.53;100.00;98899.30;1710356;83;21244;-81
2022/11/26 08:54:29;;;;;;;53.52;33.13;;;;;;;3.63;100.00;98900.48;1658424;85;21182;-77
2022/11/26 08:56:55;;;;;;;67.53;39.15;;;;;;;3.77;100.00;98902.59;1648978;85;21032;-81
2022/11/26 08:59:23;;;;;;;57.38;34.30;;;;;;;3.88;100.00;98903.76;1707567;82;21021;-77
2022/11/26 09:01:50;;;;;;;47.98;30.80;;;;;;;4.01;100.00;98903.66;1712698;83;21461;-77
2022/11/26 09:04:17;;;;;;;50.03;29.30;;;;;;;4.07;100.00;98908.17;1711918;82;21053;-81
2022/11/26 09:06:44;;;;;;;43.58;28.55;;;;;;;4.10;100.00;98908.25;1712670;83;21007;-76
2022/11/26 09:09:13;;;;;;;48.90;30.00;;;;;;;4.14;100.00;98912.16;1706114;82;21016;-78
2022/11/26 09:11:49;;;;;;;54.20;31.52;;;;;;;4.16;100.00;98920.29;1711885;83;21098;-76
2022/11/26 09:14:21;;;;;;;52.13;30.55;;;;;;;4.23;100.00;98920.25;1709722;83;21097;-82
2022/11/26 09:16:48;;;;;;;52.67;32.42;;;;;;;4.24;100.00;98920.55;1712798;83;21419;-76
2022/11/26 09:19:15;;;;;;;65.10;36.77;;;;;;;4.23;100.00;98923.75;1710224;82;21460;-82
2022/11/26 09:21:43;;;;;;;49.88;29.12;;;;;;;4.27;100.00;98922.79;1698037;83;21006;-82
2022/11/26 09:24:11;;;;;;;53.98;29.82;;;;;;;4.29;100.00;98924.76;1695168;82;21030;-77
2022/11/26 09:26:38;;;;;;;61.58;34.35;;;;;;;4.32;100.00;98923.49;1698790;83;21072;-82
2022/11/26 09:29:05;;;;;;;66.75;37.83;;;;;;;4.29;100.00;98926.63;1691252;83;21020;-81
2022/11/26 09:31:32;;;;;;;59.60;36.13;;;;;;;4.31;100.00;98921.33;1712124;83;21502;-77
2022/11/26 09:34:00;;;;;;;63.35;39.03;;;;;;;4.40;100.00;98920.55;1712491;82;21025;-82
2022/11/26 09:36:27;;;;;;;59.00;33.90;;;;;;;4.48;100.00;98926.47;1711807;83;21494;-77
2022/11/26 09:38:55;;;;;;;67.20;37.65;;;;;;;4.55;100.00;98919.71;1711134;82;21080;-81
2022/11/26 09:41:48;;;;;;;63.93;36.47;;;;;;;4.59;100.00;98916.88;1680938;82;21010;-77
2022/11/26 09:44:49;;;;;;;67.27;37.58;;;;;;;4.68;100.00;98918.24;1703773;82;21054;-77
2022/11/26 09:47:19;;;;;;;70.30;43.13;;;;;;;4.80;100.00;98925.08;1707983;82;20989;-82
2022/11/26 09:50:12;;;;;;;78.55;47.30;;;;;;;4.86;100.00;98922.83;1712623;82;21060;-77
2022/11/26 09:53:00;;;;;;;69.62;42.40;;;;;;;4.92;100.00;98929.20;1712056;82;20994;-82
2022/11/26 09:55:34;;;;;;;85.10;46.42;;;;;;;5.05;100.00;98921.03;1707017;82;21001;-77
2022/11/26 09:58:39;;;;;;;75.60;44.50;;;;;;;5.09;100.00;98919.00;1711548;82;21035;-81
2022/11/26 10:01:06;;;;;;;91.57;51.25;;;;;;;5.15;100.00;98924.54;1708925;82;20989;-77
2022/11/26 10:03:35;;;;;;;81.57;42.83;;;;;;;5.21;100.00;98920.45;1709540;82;21553;-76
2022/11/26 10:06:26;;;;;;;;;;;;;;;5.30;100.00;98925.00;1711956;82;21099;-77
2022/11/26 10:09:16;;;;;;;44.50;24.60;;;;;;;5.38;100.00;98922.84;1713291;82;20453;-77
2022/11/26 10:12:24;;;;;;;33.25;16.80;;;;;;;5.48;100.00;98921.49;1703994;82;21509;-77
2022/11/26 10:15:11;;;;;;;31.85;17.62;;;;;;;5.56;100.00;98919.84;1703572;82;21009;-77
2022/11/26 10:18:13;;;;;;;30.62;16.10;;;;;;;5.62;100.00;98924.30;1689715;82;21998;-81
2022/11/26 10:21:02;;;;;;;25.50;16.42;;;;;;;5.68;100.00;98920.72;1707887;82;21529;-82
2022/11/26 10:23:56;;;;;;;26.62;14.98;;;;;;;5.70;100.00;98921.30;1675779;82;21020;-77
2022/11/26 10:26:28;;;;;;;32.50;20.43;;;;;;;5.73;100.00;98921.40;1684468;84;21080;-77
2022/11/26 10:29:25;;;;;;;29.15;17.62;;;;;;;5.75;100.00;98921.45;1666985;84;21004;-77
2022/11/26 10:31:57;;;;;;;36.13;20.32;;;;;;;5.79;100.00;98920.47;1685641;83;21052;-77
2022/11/26 10:34:38;;;;;;;43.78;21.17;;;;;;;5.81;100.00;98924.59;1702247;82;20989;-82
2022/11/26 10:37:05;;;;;;;31.75;17.85;;;;;;;5.83;100.00;98923.02;1693838;82;21024;-76
2022/11/26 10:39:32;;;;;;;42.75;21.93;;;;;;;5.87;100.00;98921.50;1712891;83;21493;-77
2022/11/26 10:42:18;;;;;;;72.50;39.45;;;;;;;5.93;100.00;98924.14;1714305;82;21028;-82
2022/11/26 10:44:45;;;;;;;76.70;38.02;;;;;;;5.98;100.00;98924.79;1697751;82;21007;-82
2022/11/26 10:47:30;;;;;;;60.15;35.08;;;;;;;6.05;100.00;98924.70;1705958;82;21036;-82
2022/11/26 10:50:08;;;;;;;74.58;40.08;;;;;;;6.04;100.00;98927.92;1684425;85;21032;-82
2022/11/26 10:52:36;;;;;;;60.05;33.55;;;;;;;5.99;100.00;98926.98;1703042;82;21450;-77
2022/11/26 10:55:26;;;;;;;43.68;24.92;;;;;;;5.97;100.00;98919.64;1679266;82;21056;-82
2022/11/26 10:58:05;;;;;;;39.00;22.75;;;;;;;5.95;100.00;98923.91;1694242;83;21008;-82
2022/11/26 11:00:40;;;;;;;42.13;23.83;;;;;;;5.93;100.00;98921.98;1697127;83;21005;-77
2022/11/26 11:03:34;;;;;;;40.50;21.93;;;;;;;5.92;100.00;98929.75;1702602;82;21051;-77
2022/11/26 11:06:22;;;;;;;37.13;21.33;;;;;;;5.91;100.00;98924.90;1700612;83;21012;-82
2022/11/26 11:08:50;;;;;;;34.05;19.35;;;;;;;5.93;100.00;98924.14;1696589;83;21528;-82
2022/11/26 11:11:26;;;;;;;26.73;15.85;;;;;;;5.97;100.00;98920.45;1697786;83;21032;-81
2022/11/26 11:13:53;;;;;;;32.48;19.15;;;;;;;6.02;100.00;98925.98;1688924;83;21079;-82
2022/11/26 11:16:39;;;;;;;36.35;21.90;;;;;;;6.05;100.00;98923.36;1707222;82;21068;-77
2022/11/26 11:19:22;;;;;;;29.80;16.07;;;;;;;6.09;100.00;98915.96;1706206;82;21611;-82
2022/11/26 11:21:51;;;;;;;27.95;16.55;;;;;;;6.18;100.00;98913.77;1709221;82;21474;-82
2022/11/26 11:24:26;;;;;;;50.78;26.45;;;;;;;6.15;100.00;98918.23;1694620;82;21013;-77
2022/11/26 11:26:55;;;;;;;95.90;41.58;;;;;;;6.21;100.00;98924.06;1681909;82;20996;-81
2022/11/26 11:29:37;;;;;;;137.03;58.95;;;;;;;6.20;100.00;98922.42;1700604;83;22242;-81
2022/11/26 11:32:06;;;;;;;71.45;36.93;;;;;;;6.21;100.00;98924.06;1696663;83;21051;-77
2022/11/26 11:34:38;;;;;;;108.20;55.40;;;;;;;6.26;100.00;98924.73;1697643;82;21008;-82